Weston, FL (33327)

5:51 PM EST on March 04, 2015 (GMT -0500)
San Sebastian | Change Station
CLOSE
Current Station
Personal Weather Station
Location: Weston, FL
Elevation: 23 ft
Nearby Weather Stations

Elev 23 ft 26.13 °N, 80.40 °W | Updated 1 minute ago

Partly Cloudy
Partly Cloudy
79.6 °F
Feels Like 81 °F
N
4.0
Wind Variable Wind from ESE
Gusts 0.0 mph

Today
High -- | Low -- °F
--% Chance of Precip.
Yesterday
High -- | Low -- °F
Precip. -- in
6:42 AM 6:24 PM
Waxing Gibbous, 99% visible
Pressure 30.10 in
Visibility 10.0 miles
Clouds Few 3100 ft
Heat Index 81 °F
Dew Point 64 °F
Humidity 60%
Rainfall 0.00 in
Snow Depth Not available.
UV 2 out of 12
Pollen 10.50 out of 12
Air Quality Not available.
Flu Activity Not available.
METAR KOPF 042153Z 15012KT 10SM FEW031 26/19 A3010 RMK AO2 SLP193 T02560189

More Conditions Fewer Conditions

Pressure 30.10 in
Visibility 10.0 miles
Clouds Few 3100 ft
Heat Index 81 °F
Dew Point 64 °F
Humidity 60%
Rainfall 0.00 in
Snow Depth Not available.
UV 2 out of 12
Pollen 10.50 out of 12
Air Quality Not available.
Flu Activity Not available.
METAR KOPF 042153Z 15012KT 10SM FEW031 26/19 A3010 RMK AO2 SLP193 T02560189

More Conditions Fewer Conditions

10-Day Weather Forecast

Almanac

Astronomy

Mar. 04, 2015 Rise Set
Actual Time
Civil Twilight
Nautical Twilight
Astronomical Twilight
Moon
Length of Visible Light
Length of Day
Tomorrow will be .
, % of the Moon is Illuminated

Today's Extremes

State Highs State Lows

Community

WunderPhotos

Upload Photos

1,802,595 photos uploaded!

WunderBlogs® & News

Nearby

Air Quality

  Air Quality AQ Index Pollutant
Not available.

Snow Depth

Station Depth Elevation

Earthquake Activity

City Distance Mag. Time & Date
Minimum magnitude displayed is 2.5.

Coastal Water Temperatures

Place Temperature

Nearby Weather Stations